You must use a browser capable of displaying tables to view this page.

The table shows the data used to make the storm track maps. Click on the storm name in the first row to get a close up view of the storm track.

Name Date Time (UT) Lat (degrees) Lon (degrees) Course (true) Speed (knots) Pressure (mb) Wind (knots) Gusts (knots) Type Actual / Forecast WMO
CARLOS 2011-02-15 18:00 12.3S 130.7E 360 02 ??? 035 045 CYC ACT WTXS32
CARLOS 2011-02-16 06:00 12.7S 130.9E 225 01 ??? 035 045 CYC ACT WTXS32
CARLOS 2011-02-16 18:00 12.8S 131.3E 135 03 ??? 035 045 CYC ACT WTXS32
CARLOS 2011-02-17 06:00 13.7S 130.8E 215 05 ??? 035 045 CYC ACT WTXS32
CARLOS 2011-02-20 18:00 17.5S 122.0E 250 19 ??? 035 045 CYC ACT WTXS32
CARLOS 2011-02-21 00:00 17.6S 121.5E 250 06 ??? 040 050 CYC ACT WTXS32
CARLOS 2011-02-21 06:00 18.3S 120.1E 240 15 ??? 040 050 CYC ACT WTXS32
CARLOS 2011-02-21 12:00 18.9S 119.3E 235 10 ??? 045 055 CYC ACT WTXS32
CARLOS 2011-02-21 18:00 19.6S 118.4E 230 11 ??? 050 065 CYC ACT WTXS32
CARLOS 2011-02-22 00:00 20.2S 117.3E 240 12 ??? 055 070 CYC ACT WTXS32
CARLOS 2011-02-22 06:00 20.8S 116.5E 230 10 ??? 055 070 CYC ACT WTXS32
CARLOS 2011-02-22 12:00 21.3S 115.6E 240 10 ??? 055 070 CYC ACT WTXS32
CARLOS 2011-02-22 18:00 21.7S 114.8E 240 08 ??? 060 075 CYC ACT WTXS32
CARLOS 2011-02-23 00:00 22.1S 114.1E 240 08 ??? 055 070 CYC ACT WTXS32
CARLOS 2011-02-23 12:00 22.9S 112.8E 230 06 ??? 055 070 CYC ACT WTXS32
CARLOS 2011-02-24 00:00 24.0S 110.1E 245 15 ??? 045 055 CYC ACT WTXS32
CARLOS 2011-02-24 12:00 24.8S 108.6E 240 10 ??? 065 080 CYC ACT WTXS32
CARLOS 2011-02-25 00:00 25.6S 107.8E 220 05 ??? 055 070 CYC ACT WTXS32
CARLOS 2011-02-25 12:00 27.9S 105.7E 205 10 ??? 050 065 CYC ACT WTXS32
CARLOS 2011-02-26 00:00 29.2S 104.3E 220 09 ??? 035 045 CYC ACT WTXS32
CARLOS 2011-02-26 12:00 31.0S 103.7E ??? ??? ??? 030 040 ??? FOR WTXS32


Home Back

metcalf@akala.ifa.hawaii.edu